• Join FlightAware (Why Join?)
  • Login
  • US Flag 
06:21AM EDT


 

Airport Tracker/Info


-or-


 

Live Flight TrackerFlight Track Log ✈ SWA3028 ✈ 01-Feb-2014 ✈ KSMF - KPHX

Flight Track Log - Related Links

Times and Time Zones

All times are in EST time to prevent confusion due to time zone crossing. See the SWA3028 flight status page for this flight to view local times or setup timezone preferences in your user account.

Time Position Orientation Groundspeed Altitude Reporting Facility
EST Latitude Longitude Course Direction KTS MPH feet Rate Location/Type
05:09PM 38.7167 -121.6000 72° East 163 188 1,400  Level Northern Cal TRACON
05:10PM 38.7333 -121.5333 72° East 226 260 3,200 2,580 Climbing Northern Cal TRACON
05:11PM 38.7500 -121.4500 76° East 255 293 6,400 3,600 Climbing Northern Cal TRACON
05:12PM 38.7500 -121.3500 90° East 308 354 10,500 3,300 Climbing Northern Cal TRACON
05:14PM 38.7414 -121.1481 93° East 355 409 15,200 3,000 Climbing Oakland Center
05:15PM 38.7381 -121.0069 92° East 388 447 18,700 3,300 Climbing Oakland Center
05:16PM 38.7342 -120.8642 92° East 398 458 22,000 2,880 Climbing Oakland Center
05:17PM 38.7308 -120.7156 92° East 413 475 24,600 2,400 Climbing Oakland Center
05:18PM 38.7272 -120.5589 92° East 435 501 27,000 2,040 Climbing Oakland Center
05:19PM 38.7231 -120.3972 92° East 451 519 28,800 1,800 Climbing Oakland Center
05:20PM 38.7167 -120.2300 93° East 468 539 30,700 1,920 Climbing Oakland Center
05:21PM 38.6653 -120.0742 113° Southeast 482 555 32,800 1,860 Climbing Oakland Center
05:22PM 38.5950 -119.9314 122° Southeast 474 545 34,500 1,380 Climbing Oakland Center
05:23PM 38.5197 -119.7547 119° Southeast 479 551 35,700 1,200 Climbing Oakland Center
05:24PM 38.4494 -119.5989 120° Southeast 499 574 37,000 1,320 Climbing Oakland Center
05:25PM 38.3781 -119.4431 120° Southeast 509 586 38,400 1,200 Climbing Oakland Center
05:26PM 38.3047 -119.2900 121° Southeast 510 587 39,500 900 Climbing Oakland Center
05:27PM 38.2339 -119.1364 120° Southeast 507 583 40,300 720 Climbing Oakland Center
05:28PM 38.1689 -118.9750 117° Southeast 511 588 41,000 300 Climbing Oakland Center
05:29PM 38.0983 -118.8164 119° Southeast 516 594 41,000  Level Oakland Center
05:30PM 38.0264 -118.6603 120° Southeast 516 594 41,000  Level Oakland Center
05:31PM 37.9553 -118.5039 120° Southeast 513 590 41,000  Level Oakland Center
05:32PM 37.8831 -118.3481 120° Southeast 514 592 41,000  Level Oakland Center
05:33PM 37.7944 -118.1608 121° Southeast 517 595 41,000  Level Oakland Center
05:34PM 37.7236 -118.0050 120° Southeast 515 593 41,000  Level Oakland Center
05:35PM 37.6511 -117.8514 121° Southeast 514 592 41,000  Level Oakland Center
05:36PM 37.5797 -117.6983 120° Southeast 511 588 41,000  Level Oakland Center
05:37PM 37.5064 -117.5475 121° Southeast 510 587 41,000  Level Oakland Center
05:38PM 37.4083 -117.4214 134° Southeast 511 588 41,000  Level Oakland Center
05:39PM 37.3044 -117.3067 139° Southeast 502 578 41,000  Level Los Angeles Center
05:40PM 37.2008 -117.1875 137° Southeast 505 581 41,000  Level Los Angeles Center
05:41PM 37.0964 -117.0736 139° Southeast 500 575 41,000  Level Los Angeles Center
05:42PM 36.9717 -116.9342 138° Southeast 500 575 41,000  Level Los Angeles Center
05:43PM 36.8669 -116.8178 138° Southeast 502 578 41,000  Level Los Angeles Center
05:44PM 36.7769 -116.6867 131° Southeast 497 572 41,000  Level Los Angeles Center
05:45PM 36.7108 -116.5317 118° Southeast 505 581 41,000  Level Los Angeles Center
05:46PM 36.6464 -116.3769 117° Southeast 504 580 41,000  Level Los Angeles Center
05:47PM 36.5817 -116.2222 117° Southeast 504 580 41,000  Level Los Angeles Center
05:49PM 36.5025 -116.0356 118° Southeast 507 583 41,000  Level Los Angeles Center
05:50PM 36.4367 -115.8825 118° Southeast 504 580 41,000  Level Los Angeles Center
05:51PM 36.3669 -115.7211 118° Southeast 505 581 41,000  Level Los Angeles Center
05:52PM 36.3042 -115.5750 118° Southeast 504 580 41,000  Level Los Angeles Center
05:53PM 36.2411 -115.4250 117° Southeast 510 587 41,000  Level Los Angeles Center
05:54PM 36.1736 -115.2714 119° Southeast 510 587 41,000 -420 Level Los Angeles Center
05:55PM 36.0911 -115.0828 118° Southeast 522 601 40,200 -900 Descending Los Angeles Center
05:56PM 36.0239 -114.9286 118° Southeast 513 590 39,200 -960 Descending Los Angeles Center
05:57PM 35.9514 -114.7767 120° Southeast 513 590 38,300 -960 Descending Los Angeles Center
05:58PM 35.8733 -114.6300 123° Southeast 512 589 37,300 -660 Descending Los Angeles Center
05:59PM 35.7981 -114.4867 123° Southeast 503 579 37,000 -180 Descending Los Angeles Center
06:00PM 35.7225 -114.3433 123° Southeast 500 575 37,000  Level Los Angeles Center
06:01PM 35.6361 -114.1792 123° Southeast 502 578 37,000  Level Los Angeles Center
06:02PM 35.5597 -114.0372 123° Southeast 502 578 37,000 -660 Level Los Angeles Center
06:03PM 35.4839 -113.8950 123° Southeast 502 578 35,700 -2,340 Descending Los Angeles Center
06:04PM 35.4061 -113.7550 124° Southeast 501 577 32,300 -2,940 Descending Los Angeles Center
06:05PM 35.3300 -113.6164 124° Southeast 496 571 29,700 -1,620 Descending Los Angeles Center
06:06PM 35.2597 -113.4858 123° Southeast 473 544 29,000 -360 Descending Los Angeles Center
06:07PM 35.1764 -113.3347 124° Southeast 456 525 29,000  Level Los Angeles Center
06:08PM 35.0942 -113.1828 123° Southeast 454 522 29,000  Level Albuquerque Center
06:09PM 35.0122 -113.0717 132° Southeast 446 513 29,000  Level Albuquerque Center
06:10PM 34.9167 -112.9736 140° Southeast 453 521 29,000  Level Albuquerque Center
06:11PM 34.8000 -112.8547 140° Southeast 458 527 29,000  Level Albuquerque Center
06:12PM 34.7050 -112.7558 139° Southeast 455 524 29,000 -300 Level Albuquerque Center
06:13PM 34.6081 -112.6606 141° Southeast 452 520 28,400 -1,500 Descending Albuquerque Center
06:14PM 34.5150 -112.5650 140° Southeast 444 511 26,000 -2,400 Descending Albuquerque Center
06:15PM 34.4147 -112.4647 140° Southeast 428 493 23,500 -2,340 Descending Albuquerque Center
06:17PM 34.3286 -112.3783 140° Southeast 411 473 21,300 -2,160 Descending Albuquerque Center
06:18PM 34.2461 -112.2956 140° Southeast 394 453 19,100 -2,100 Descending Albuquerque Center
06:19PM 34.1661 -112.2169 141° Southeast 375 432 17,000 -1,740 Descending Albuquerque Center
06:20PM 34.0892 -112.1425 141° Southeast 361 415 15,600 -1,380 Descending Albuquerque Center
06:21PM 33.9967 -112.1125 165° South 346 398 14,200 -1,860 Descending Albuquerque Center
06:22PM 33.8872 -112.0847 168° South 338 389 11,900 -1,980 Descending Albuquerque Center
06:23PM 33.7992 -112.0633 169° South 329 379 10,200 -960 Descending Albuquerque Center
06:24PM 33.7183 -112.0458 170° South 299 344 10,000 -420 Descending Albuquerque Center
06:25PM 33.6417 -112.0325 172° South 282 325 9,400 -600 Descending Albuquerque Center
06:25PM 33.5833 -112.0167 167° South 250 288 9,000 -960 Descending Phoenix TRACON
06:26PM 33.5333 -111.9667 140° Southeast 238 274 7,800 -1,080 Descending Phoenix TRACON
06:27PM 33.5333 -111.9000 90° East 212 244 6,900 -1,200 Descending Phoenix TRACON
06:28PM 33.5167 -111.8500 112° Southeast 200 230 5,500 -1,740 Descending Phoenix TRACON
06:29PM 33.4667 -111.8500 180° South 199 229 3,700 -1,500 Descending Phoenix TRACON
06:30PM 33.4333 -111.9000 231° Southwest 157 181 2,600 -960 Descending Phoenix TRACON
06:31PM 33.4333 -111.9500 270° West 133 153 1,800 -780 Descending Phoenix TRACON